Time;durP1;ratioP1;P1;durP2;ratioP2;P2;SDS_P1;SDS_P2;PMS_P1;PMS_P2;Temp;Humidity;BMP_temperature;BMP_pressure;BME280_temperature;BME280_humidity;BME280_pressure;Samples;Min_cycle;Max_cycle;Signal;HPM_P1;HPM_P2
2021/06/01 00:02:01;;;;;;;4.57;3.60;;;13.40;99.90;;;;;;5001336;28;20454;-55
2021/06/01 00:04:27;;;;;;;4.70;3.93;;;13.40;99.90;;;;;;5006307;28;20588;-55
2021/06/01 00:06:54;;;;;;;4.13;3.70;;;13.30;99.90;;;;;;5015839;28;20469;-55
2021/06/01 00:09:23;;;;;;;12.73;4.43;;;13.30;99.90;;;;;;5015648;28;20503;-55
2021/06/01 00:11:49;;;;;;;5.57;4.10;;;13.30;99.90;;;;;;5012481;28;20647;-55
2021/06/01 00:14:17;;;;;;;5.10;4.13;;;13.20;99.90;;;;;;5014274;28;20449;-55
2021/06/01 00:16:44;;;;;;;6.70;4.20;;;13.00;99.90;;;;;;5015594;28;20594;-56
2021/06/01 00:19:11;;;;;;;4.80;3.90;;;12.80;99.90;;;;;;5013675;28;20446;-55
2021/06/01 00:21:39;;;;;;;4.40;4.00;;;12.60;99.90;;;;;;5015523;28;20472;-56
2021/06/01 00:24:06;;;;;;;5.07;4.30;;;12.70;99.90;;;;;;5015479;28;20936;-55
2021/06/01 00:26:36;;;;;;;4.60;3.90;;;12.80;99.90;;;;;;5015589;28;20481;-55
2021/06/01 00:29:03;;;;;;;4.83;3.60;;;12.80;99.90;;;;;;5015310;28;20457;-55
2021/06/01 00:31:30;;;;;;;6.17;4.23;;;12.90;99.90;;;;;;5014315;28;20503;-55
2021/06/01 00:33:56;;;;;;;4.67;3.73;;;12.90;99.90;;;;;;5014852;28;20480;-56
2021/06/01 00:36:23;;;;;;;5.00;4.07;;;12.80;99.90;;;;;;5015541;28;20469;-55
2021/06/01 00:38:49;;;;;;;4.70;4.20;;;12.90;99.90;;;;;;5014913;28;20504;-55
2021/06/01 00:41:17;;;;;;;4.80;3.80;;;12.80;99.90;;;;;;5014968;28;20508;-55
2021/06/01 00:43:45;;;;;;;6.07;4.70;;;12.80;99.90;;;;;;5015069;28;20532;-55
2021/06/01 00:46:12;;;;;;;4.10;3.70;;;12.80;99.90;;;;;;5014776;28;21016;-54
2021/06/01 00:48:38;;;;;;;6.07;4.30;;;12.80;99.90;;;;;;5014512;28;20465;-55
2021/06/01 00:51:05;;;;;;;4.93;3.80;;;12.70;99.90;;;;;;5014779;28;20489;-55
2021/06/01 00:53:32;;;;;;;4.80;4.07;;;12.70;99.90;;;;;;5014896;28;20994;-54
2021/06/01 00:55:59;;;;;;;5.90;4.23;;;12.70;99.90;;;;;;5014849;28;20488;-56
2021/06/01 00:58:26;;;;;;;7.30;4.50;;;12.70;99.90;;;;;;5015134;28;20477;-55
2021/06/01 01:03:43;;;;;;;5.43;4.40;;;12.50;99.90;;;;;;4994478;28;21057;-54
2021/06/01 01:06:38;;;;;;;5.80;4.13;;;12.50;99.90;;;;;;5010821;28;20473;-55
2021/06/01 01:09:09;;;;;;;6.97;4.70;;;12.40;99.90;;;;;;4997208;28;20450;-55
2021/06/01 01:11:41;;;;;;;9.17;4.90;;;12.20;99.90;;;;;;5014309;28;20546;-55
2021/06/01 01:14:11;;;;;;;6.83;4.40;;;12.20;99.90;;;;;;5014905;28;20547;-55
2021/06/01 01:16:43;;;;;;;6.23;4.93;;;12.20;99.90;;;;;;5012318;28;20509;-55
2021/06/01 01:19:13;;;;;;;7.20;4.50;;;12.20;99.90;;;;;;5014617;28;20939;-55
2021/06/01 01:21:46;;;;;;;7.50;5.40;;;12.30;99.90;;;;;;5014710;28;20442;-56
2021/06/01 01:24:40;;;;;;;8.13;5.27;;;12.30;99.90;;;;;;5013769;28;20460;-55
2021/06/01 01:27:16;;;;;;;9.93;5.77;;;12.20;99.90;;;;;;5004633;28;20481;-55
2021/06/01 01:29:45;;;;;;;6.87;4.93;;;12.20;99.90;;;;;;5014524;28;20906;-55
2021/06/01 01:32:21;;;;;;;7.30;4.73;;;12.20;99.90;;;;;;5014357;28;20486;-55
2021/06/01 01:34:51;;;;;;;6.57;5.20;;;12.20;99.90;;;;;;5009151;28;20473;-55
2021/06/01 01:37:18;;;;;;;6.27;4.60;;;12.10;99.90;;;;;;5005695;28;20560;-55
2021/06/01 01:39:50;;;;;;;7.23;4.67;;;12.10;99.90;;;;;;5014404;28;20500;-55
2021/06/01 01:42:18;;;;;;;7.20;5.10;;;12.10;99.90;;;;;;5013883;28;20441;-55
2021/06/01 01:44:49;;;;;;;6.20;4.73;;;12.00;99.90;;;;;;5005137;28;20490;-55
2021/06/01 01:50:05;;;;;;;7.17;4.47;;;12.10;99.90;;;;;;5014252;28;21006;-55
2021/06/01 01:52:36;;;;;;;8.60;5.07;;;12.10;99.90;;;;;;5013862;28;20457;-55
2021/06/01 01:55:04;;;;;;;8.20;5.40;;;12.10;99.90;;;;;;5013950;28;20488;-55
2021/06/01 01:57:31;;;;;;;5.87;4.77;;;11.90;99.90;;;;;;5013482;28;20477;-55
2021/06/01 01:59:59;;;;;;;10.37;4.90;;;12.00;99.90;;;;;;5014033;28;20511;-54
2021/06/01 02:02:26;;;;;;;9.70;4.93;;;11.90;99.90;;;;;;5013795;28;20544;-55
2021/06/01 02:04:53;;;;;;;8.27;5.80;;;11.90;99.90;;;;;;5011991;28;20449;-55
2021/06/01 02:07:21;;;;;;;8.73;5.10;;;11.90;99.90;;;;;;5013535;28;21171;-55
2021/06/01 02:09:47;;;;;;;6.90;4.97;;;11.90;99.90;;;;;;5013955;28;20446;-55
2021/06/01 02:12:15;;;;;;;7.20;5.27;;;11.80;99.90;;;;;;5013321;28;20480;-56
2021/06/01 02:14:42;;;;;;;9.97;6.90;;;11.80;99.90;;;;;;5004727;28;20538;-55
2021/06/01 02:17:09;;;;;;;8.70;5.50;;;11.80;99.90;;;;;;5007265;28;20473;-55
2021/06/01 02:19:35;;;;;;;7.73;5.27;;;11.80;99.90;;;;;;5013535;28;20454;-55
2021/06/01 02:24:54;;;;;;;8.80;5.60;;;11.70;99.90;;;;;;5010720;28;20442;-56
2021/06/01 02:27:26;;;;;;;7.10;5.67;;;11.70;99.90;;;;;;5049608;22;20498;-48
2021/06/01 02:30:02;;;;;;;8.70;5.70;;;11.60;99.90;;;;;;5033087;28;20441;-49
2021/06/01 02:32:33;;;;;;;7.20;5.40;;;11.40;99.90;;;;;;5033096;28;20440;-48
2021/06/01 02:35:04;;;;;;;8.50;5.77;;;11.20;99.90;;;;;;5032955;28;20506;-48
2021/06/01 02:37:31;;;;;;;9.60;5.87;;;11.20;99.90;;;;;;5032515;28;20550;-49
2021/06/01 02:40:00;;;;;;;12.40;5.43;;;11.30;99.90;;;;;;5033091;28;20448;-49
2021/06/01 02:42:26;;;;;;;7.90;5.53;;;11.20;99.90;;;;;;5032600;28;20972;-49
2021/06/01 02:44:53;;;;;;;8.23;5.60;;;11.30;99.90;;;;;;5032700;28;20457;-48
2021/06/01 02:47:20;;;;;;;6.73;5.53;;;11.10;99.90;;;;;;5032752;28;20468;-48
2021/06/01 02:49:48;;;;;;;7.07;5.83;;;11.20;99.90;;;;;;5032668;28;20456;-49
2021/06/01 02:52:14;;;;;;;7.87;5.40;;;11.10;99.90;;;;;;5032031;28;20484;-49
2021/06/01 02:54:41;;;;;;;7.13;5.73;;;11.10;99.90;;;;;;5026926;28;20446;-48
2021/06/01 02:57:09;;;;;;;6.30;5.03;;;11.10;99.90;;;;;;5018727;28;20518;-48
2021/06/01 02:59:39;;;;;;;6.90;5.67;;;11.00;99.90;;;;;;5030884;28;20452;-49
2021/06/01 03:02:06;;;;;;;6.33;5.00;;;11.10;99.90;;;;;;5031301;28;20436;-49
2021/06/01 03:04:33;;;;;;;7.07;5.50;;;11.00;99.90;;;;;;5027939;28;20449;-48
2021/06/01 03:07:00;;;;;;;10.90;6.47;;;11.00;99.90;;;;;;5012877;28;20500;-48
2021/06/01 03:09:27;;;;;;;8.37;5.60;;;11.00;99.90;;;;;;5019616;28;20459;-48
2021/06/01 03:11:53;;;;;;;7.13;5.10;;;10.90;99.90;;;;;;5031221;28;20499;-49
2021/06/01 03:14:21;;;;;;;7.20;5.60;;;11.00;99.90;;;;;;5029995;28;20470;-48
2021/06/01 03:16:48;;;;;;;9.80;6.20;;;11.00;99.90;;;;;;5012784;28;20816;-48
2021/06/01 03:19:14;;;;;;;8.20;6.47;;;11.00;99.90;;;;;;5013312;28;20508;-49
2021/06/01 03:21:41;;;;;;;7.97;5.80;;;10.70;99.90;;;;;;5012523;28;20472;-49
2021/06/01 03:24:09;;;;;;;8.20;6.00;;;10.60;99.90;;;;;;5012415;28;20490;-49
2021/06/01 03:26:35;;;;;;;6.60;5.13;;;10.70;99.90;;;;;;5012382;28;20516;-48
2021/06/01 03:29:02;;;;;;;8.27;5.63;;;10.70;99.90;;;;;;5012680;28;20446;-48
2021/06/01 03:31:32;;;;;;;9.20;5.77;;;10.80;99.90;;;;;;5012242;28;20838;-48
2021/06/01 03:33:58;;;;;;;7.27;5.70;;;10.70;99.90;;;;;;5012688;28;20864;-48
2021/06/01 03:36:25;;;;;;;8.00;6.00;;;10.80;99.90;;;;;;5012133;28;20474;-48
2021/06/01 03:38:52;;;;;;;17.50;6.20;;;10.90;99.90;;;;;;5012559;28;20505;-49
2021/06/01 03:41:20;;;;;;;7.17;5.43;;;10.80;99.90;;;;;;5012198;28;20441;-48
2021/06/01 03:43:46;;;;;;;12.80;7.03;;;10.90;99.90;;;;;;5026610;28;20825;-48
2021/06/01 03:46:13;;;;;;;9.00;5.30;;;10.90;99.90;;;;;;5021529;28;20468;-49
2021/06/01 03:48:41;;;;;;;8.53;6.07;;;11.00;99.90;;;;;;5015092;28;20448;-49
2021/06/01 03:51:07;;;;;;;8.50;6.27;;;10.90;99.90;;;;;;5021677;28;20556;-48
2021/06/01 03:53:34;;;;;;;7.83;5.30;;;10.90;99.90;;;;;;5023013;28;20445;-49
2021/06/01 03:56:00;;;;;;;11.83;6.40;;;10.90;99.90;;;;;;5030576;28;20461;-49
2021/06/01 03:58:27;;;;;;;8.27;5.60;;;10.90;99.90;;;;;;5030565;28;20474;-49
2021/06/01 04:00:53;;;;;;;9.23;6.30;;;10.90;99.90;;;;;;5030518;28;20448;-47
2021/06/01 04:03:19;;;;;;;8.40;5.80;;;10.90;99.90;;;;;;5021713;28;20888;-48
2021/06/01 04:05:47;;;;;;;10.83;6.57;;;11.00;99.90;;;;;;5011876;28;20449;-48
2021/06/01 04:08:14;;;;;;;11.50;6.23;;;11.00;99.90;;;;;;5011943;28;20449;-49
2021/06/01 04:10:40;;;;;;;10.23;6.50;;;11.10;99.90;;;;;;5011979;28;20866;-49
2021/06/01 04:13:07;;;;;;;8.33;5.90;;;11.20;99.90;;;;;;5017974;28;20452;-49
2021/06/01 04:15:33;;;;;;;12.60;6.50;;;11.20;99.90;;;;;;5030190;28;20451;-48
2021/06/01 04:18:00;;;;;;;8.77;5.80;;;11.20;99.90;;;;;;5030297;28;20494;-49
2021/06/01 04:20:26;;;;;;;8.90;6.20;;;11.30;99.90;;;;;;5023577;28;20454;-49
2021/06/01 04:22:54;;;;;;;8.77;5.90;;;11.30;99.90;;;;;;5011605;28;20965;-48
2021/06/01 04:25:21;;;;;;;17.10;8.60;;;11.40;99.90;;;;;;5011736;28;20453;-49
2021/06/01 04:27:47;;;;;;;10.37;6.30;;;11.30;99.90;;;;;;5011624;28;20472;-48
2021/06/01 04:30:15;;;;;;;7.90;5.90;;;11.30;99.90;;;;;;5011966;28;20453;-49
2021/06/01 04:32:41;;;;;;;11.93;6.60;;;11.30;99.90;;;;;;5011363;28;20481;-47
2021/06/01 04:35:08;;;;;;;8.27;5.97;;;11.40;99.90;;;;;;5011732;28;20937;-48
2021/06/01 04:37:35;;;;;;;7.33;5.50;;;11.50;99.90;;;;;;5011802;28;20461;-49
2021/06/01 04:40:04;;;;;;;7.70;5.30;;;11.70;99.90;;;;;;5013979;28;20449;-49
2021/06/01 04:42:30;;;;;;;9.57;6.20;;;11.90;99.90;;;;;;5029704;28;20999;-49
2021/06/01 04:44:57;;;;;;;9.10;6.27;;;12.00;99.90;;;;;;5030003;28;20452;-49
2021/06/01 04:47:23;;;;;;;10.90;6.00;;;12.20;99.90;;;;;;5011911;28;20457;-48
2021/06/01 04:49:50;;;;;;;11.23;6.73;;;12.40;99.90;;;;;;5012276;28;20457;-49
2021/06/01 04:52:17;;;;;;;7.90;6.03;;;12.60;99.90;;;;;;5027868;28;20476;-48
2021/06/01 04:54:44;;;;;;;7.13;5.67;;;12.80;99.90;;;;;;5033553;28;20984;-49
2021/06/01 04:57:12;;;;;;;10.40;6.23;;;13.10;99.90;;;;;;5022716;28;20462;-49
2021/06/01 04:59:38;;;;;;;8.17;6.10;;;13.90;99.90;;;;;;5015106;28;20442;-49
2021/06/01 05:02:06;;;;;;;12.17;6.37;;;15.00;99.90;;;;;;5014759;28;20449;-49
2021/06/01 05:04:32;;;;;;;7.70;5.70;;;16.30;99.90;;;;;;5015080;28;20452;-49
2021/06/01 05:07:00;;;;;;;9.17;6.27;;;17.50;99.90;;;;;;5014867;28;20978;-49
2021/06/01 05:09:27;;;;;;;7.13;6.10;;;18.20;99.90;;;;;;5026802;28;20448;-49
2021/06/01 05:11:54;;;;;;;8.53;5.97;;;17.90;99.90;;;;;;5017953;28;20473;-49
2021/06/01 05:14:22;;;;;;;6.37;5.70;;;17.80;99.90;;;;;;5015263;28;20437;-48
2021/06/01 05:16:49;;;;;;;6.43;5.27;;;19.00;99.90;;;;;;5014562;28;21000;-50
2021/06/01 05:19:16;;;;;;;8.57;5.45;;;20.10;99.90;;;;;;5012037;28;20965;-49
2021/06/01 05:21:42;;;;;;;6.87;5.77;;;20.80;99.90;;;;;;5026958;28;20256;-50
2021/06/01 05:24:10;;;;;;;9.67;5.73;;;20.70;99.90;;;;;;5028953;28;20444;-50
2021/06/01 05:26:36;;;;;;;9.03;5.17;;;19.30;99.90;;;;;;5024066;28;20555;-50
2021/06/01 05:29:03;;;;;;;6.47;5.03;;;19.80;99.90;;;;;;5025739;28;20460;-50
2021/06/01 05:31:41;;;;;;;8.90;5.70;;;21.00;99.80;;;;;;5017133;28;20823;-50
2021/06/01 05:34:10;;;;;;;8.13;5.30;;;21.90;98.70;;;;;;5024869;28;20473;-49
2021/06/01 05:36:36;;;;;;;11.17;5.63;;;22.60;95.60;;;;;;5029161;28;20911;-49
2021/06/01 05:39:03;;;;;;;8.70;6.23;;;22.80;94.70;;;;;;5029575;28;21162;-50
2021/06/01 05:41:30;;;;;;;7.87;5.93;;;23.00;94.30;;;;;;5027886;28;20445;-51
2021/06/01 05:43:56;;;;;;;8.43;5.87;;;21.90;96.30;;;;;;5032375;28;20499;-51
2021/06/01 05:46:23;;;;;;;8.47;6.50;;;21.90;96.10;;;;;;5025025;28;20488;-50
2021/06/01 05:48:51;;;;;;;6.60;5.20;;;22.50;94.00;;;;;;5014122;28;20450;-51
2021/06/01 05:51:19;;;;;;;7.33;6.10;;;23.20;94.40;;;;;;5014401;28;20844;-51
2021/06/01 05:53:46;;;;;;;10.60;6.23;;;23.70;93.00;;;;;;5013997;28;20449;-50
2021/06/01 05:56:12;;;;;;;7.17;5.93;;;24.10;92.20;;;;;;5013681;28;20907;-50
2021/06/01 05:58:39;;;;;;;6.33;5.50;;;23.60;91.00;;;;;;5026931;28;20798;-50
2021/06/01 06:01:06;;;;;;;6.10;5.50;;;24.00;90.60;;;;;;5027187;28;20814;-51
2021/06/01 06:03:32;;;;;;;6.20;5.60;;;24.40;90.30;;;;;;5025174;28;20471;-51
2021/06/01 06:06:02;;;;;;;8.53;6.40;;;24.30;90.80;;;;;;5021967;28;20481;-51
2021/06/01 06:08:29;;;;;;;8.33;5.57;;;23.90;89.80;;;;;;5020459;28;20487;-50
2021/06/01 06:10:56;;;;;;;7.40;5.70;;;23.90;88.10;;;;;;5024175;28;20496;-51
2021/06/01 06:13:22;;;;;;;6.80;6.00;;;24.30;88.30;;;;;;5021218;28;20460;-51
2021/06/01 06:15:49;;;;;;;8.30;5.93;;;24.90;86.20;;;;;;5024678;28;20475;-50
2021/06/01 06:18:23;;;;;;;6.63;5.93;;;25.00;87.30;;;;;;5026791;28;21039;-51
2021/06/01 06:20:50;;;;;;;8.17;6.03;;;23.50;91.10;;;;;;5022786;28;20453;-50
2021/06/01 06:23:18;;;;;;;10.03;6.37;;;23.00;91.00;;;;;;5024273;28;20464;-50
2021/06/01 06:25:44;;;;;;;7.00;5.53;;;24.10;88.30;;;;;;5022396;28;20472;-50
2021/06/01 06:28:11;;;;;;;7.13;5.30;;;24.80;88.40;;;;;;5023013;28;20475;-51
2021/06/01 06:30:37;;;;;;;8.93;5.73;;;25.40;85.60;;;;;;5020503;28;20490;-51
2021/06/01 06:33:04;;;;;;;6.53;5.60;;;25.30;84.70;;;;;;5021722;28;20463;-50
2021/06/01 06:35:31;;;;;;;39.67;8.90;;;24.60;84.80;;;;;;5021899;28;20464;-51
2021/06/01 06:37:57;;;;;;;8.10;6.27;;;24.70;85.50;;;;;;5022105;28;20472;-51
2021/06/01 06:40:25;;;;;;;6.50;5.30;;;24.40;85.20;;;;;;5020276;28;20461;-50
2021/06/01 06:42:51;;;;;;;7.33;4.60;;;22.50;90.70;;;;;;5022254;28;20462;-50
2021/06/01 06:45:18;;;;;;;6.00;5.40;;;23.20;89.80;;;;;;5022595;28;20487;-50
2021/06/01 06:47:57;;;;;;;6.60;5.10;;;23.90;87.30;;;;;;5020470;28;20484;-50
2021/06/01 06:50:25;;;;;;;6.93;5.10;;;23.80;87.60;;;;;;5021096;28;20503;-50
2021/06/01 06:52:52;;;;;;;10.60;4.63;;;24.20;83.90;;;;;;5020434;28;20513;-51
2021/06/01 06:55:19;;;;;;;6.17;4.97;;;24.60;88.80;;;;;;5021802;28;20460;-51
2021/06/01 06:57:47;;;;;;;6.63;4.80;;;23.90;86.30;;;;;;5021218;28;20538;-51
2021/06/01 07:00:16;;;;;;;6.70;5.13;;;23.90;85.50;;;;;;5027976;28;20457;-50
2021/06/01 07:02:43;;;;;;;9.03;5.40;;;24.30;84.00;;;;;;5018332;28;20954;-51
2021/06/01 07:05:11;;;;;;;6.80;4.97;;;23.40;89.50;;;;;;5027886;28;20456;-49
2021/06/01 07:07:39;;;;;;;9.70;4.80;;;22.50;89.60;;;;;;5021886;28;22355;-50
2021/06/01 07:10:07;;;;;;;5.10;4.60;;;22.60;88.40;;;;;;5022569;28;20483;-51
2021/06/01 07:12:33;;;;;;;7.10;5.20;;;22.80;87.50;;;;;;5020640;28;20521;-51
2021/06/01 07:15:10;;;;;;;5.60;5.00;;;23.40;88.20;;;;;;5021666;28;20969;-50
2021/06/01 07:17:38;;;;;;;6.30;5.10;;;24.40;86.30;;;;;;5019453;28;20547;-51
2021/06/01 07:20:07;;;;;;;6.13;4.90;;;25.20;84.90;;;;;;5021990;28;20471;-50
2021/06/01 07:22:34;;;;;;;5.57;5.07;;;25.70;84.10;;;;;;5023060;28;20511;-51
2021/06/01 07:25:00;;;;;;;6.30;5.67;;;25.20;86.50;;;;;;5022268;28;20990;-51
2021/06/01 07:27:28;;;;;;;6.20;5.00;;;25.30;84.20;;;;;;5020377;28;20519;-51
2021/06/01 07:29:54;;;;;;;7.80;5.60;;;24.10;87.20;;;;;;5024802;28;20955;-50
2021/06/01 07:32:22;;;;;;;12.00;5.57;;;24.40;86.30;;;;;;5019632;28;20485;-51
2021/06/01 07:34:49;;;;;;;7.30;5.40;;;24.30;86.70;;;;;;5014469;28;20465;-50
2021/06/01 07:37:16;;;;;;;6.23;5.67;;;24.00;86.80;;;;;;5020140;28;20465;-51
2021/06/01 07:39:43;;;;;;;6.67;5.33;;;24.60;86.80;;;;;;5023655;28;20464;-50
2021/06/01 07:42:10;;;;;;;6.20;5.60;;;24.30;89.00;;;;;;5030916;28;20808;-50
2021/06/01 07:44:36;;;;;;;6.53;5.37;;;23.80;90.10;;;;;;5025754;28;20523;-50
2021/06/01 07:47:03;;;;;;;6.83;6.00;;;24.40;87.90;;;;;;5023209;28;20465;-51
2021/06/01 07:49:31;;;;;;;7.33;5.77;;;24.90;86.60;;;;;;5031677;28;20843;-51
2021/06/01 07:51:58;;;;;;;6.50;5.80;;;24.40;86.50;;;;;;5031451;28;20484;-50
2021/06/01 07:54:24;;;;;;;6.23;5.60;;;24.50;86.90;;;;;;5030813;28;20449;-51
2021/06/01 07:56:51;;;;;;;9.83;5.50;;;24.40;86.10;;;;;;5031669;28;20494;-51
2021/06/01 07:59:17;;;;;;;6.47;5.80;;;24.90;86.60;;;;;;5031834;28;20448;-51
2021/06/01 08:01:46;;;;;;;9.60;5.63;;;25.70;84.20;;;;;;5030478;28;20444;-50
2021/06/01 08:04:13;;;;;;;6.53;5.73;;;26.50;83.80;;;;;;5025335;28;20456;-51
2021/06/01 08:06:41;;;;;;;6.17;5.57;;;26.20;83.60;;;;;;5016244;28;20469;-50
2021/06/01 08:09:08;;;;;;;7.00;6.30;;;25.80;86.80;;;;;;5029878;28;20448;-50
2021/06/01 08:11:35;;;;;;;6.67;5.97;;;23.60;90.10;;;;;;5029018;28;20483;-50
2021/06/01 08:14:01;;;;;;;9.47;5.93;;;22.80;92.10;;;;;;5025339;28;20450;-50
2021/06/01 08:16:32;;;;;;;7.80;6.77;;;22.00;92.20;;;;;;5010989;28;20473;-50
2021/06/01 08:19:04;;;;;;;7.07;6.37;;;20.90;93.50;;;;;;5016962;28;20454;-50
2021/06/01 08:21:51;;;;;;;6.07;5.47;;;21.30;92.00;;;;;;5029080;28;20938;-50
2021/06/01 08:24:20;;;;;;;6.17;5.57;;;22.00;90.30;;;;;;5011158;28;20493;-50
2021/06/01 08:26:47;;;;;;;7.50;6.20;;;22.70;91.20;;;;;;5031868;28;20500;-50
2021/06/01 08:29:13;;;;;;;6.70;5.43;;;21.70;93.10;;;;;;5033457;28;20811;-51
2021/06/01 08:31:40;;;;;;;6.60;5.90;;;22.40;92.50;;;;;;5032888;28;20476;-50
2021/06/01 08:34:07;;;;;;;6.80;5.70;;;22.40;93.30;;;;;;5016677;28;20450;-50
2021/06/01 08:36:36;;;;;;;7.37;6.13;;;22.70;92.10;;;;;;5014537;28;20473;-50
2021/06/01 08:39:04;;;;;;;8.40;7.10;;;23.40;90.80;;;;;;5036188;22;20460;-56
2021/06/01 08:41:33;;;;;;;8.53;5.53;;;23.40;91.10;;;;;;5002129;28;20484;-55
2021/06/01 08:44:00;;;;;;;6.07;5.47;;;24.00;90.50;;;;;;5010384;28;20500;-56
2021/06/01 08:46:29;;;;;;;7.73;5.73;;;24.40;88.30;;;;;;5012004;28;20449;-56
2021/06/01 08:48:56;;;;;;;6.03;5.30;;;24.00;87.40;;;;;;5014324;28;20453;-56
2021/06/01 08:51:25;;;;;;;5.73;5.23;;;24.70;89.70;;;;;;5014401;28;20488;-57
2021/06/01 08:53:55;;;;;;;8.23;5.33;;;26.00;83.70;;;;;;5014549;28;20508;-57
2021/06/01 08:56:25;;;;;;;5.50;5.00;;;26.00;83.40;;;;;;5014465;28;20461;-57
2021/06/01 08:58:52;;;;;;;6.57;5.27;;;25.10;84.10;;;;;;5014204;28;20483;-57
2021/06/01 09:01:22;;;;;;;6.23;4.80;;;24.70;88.30;;;;;;5013971;28;20503;-58
2021/06/01 09:03:53;;;;;;;7.53;5.60;;;25.50;84.00;;;;;;5014176;28;20460;-57
2021/06/01 09:06:22;;;;;;;5.70;4.47;;;25.70;81.80;;;;;;5014289;28;20488;-57
2021/06/01 09:11:50;;;;;;;7.43;5.80;;;26.40;81.90;;;;;;4996331;28;20504;-57
2021/06/01 09:14:46;;;;;;;5.50;4.97;;;23.00;86.90;;;;;;5014369;28;20456;-57
2021/06/01 09:23:09;;;;;;;6.30;4.97;;;23.60;90.20;;;;;;5013973;28;20421;-57
2021/06/01 09:25:40;;;;;;;5.57;5.00;;;22.80;90.60;;;;;;5014014;28;20564;-57
2021/06/01 09:28:09;;;;;;;5.60;4.93;;;23.90;86.20;;;;;;5014329;28;20444;-57
2021/06/01 09:30:40;;;;;;;5.83;4.90;;;24.20;85.70;;;;;;5013705;28;20845;-56
2021/06/01 09:33:07;;;;;;;6.87;5.57;;;23.70;86.40;;;;;;5013513;28;20775;-57
2021/06/01 09:35:43;;;;;;;4.67;4.17;;;23.70;88.10;;;;;;5013866;28;20866;-57
2021/06/01 09:38:09;;;;;;;6.63;4.97;;;24.40;86.20;;;;;;5012800;28;20441;-58
2021/06/01 09:40:36;;;;;;;6.00;5.03;;;24.90;85.50;;;;;;5013751;28;20485;-57
2021/06/01 09:43:08;;;;;;;7.13;4.97;;;24.40;83.70;;;;;;5013372;28;20434;-57
2021/06/01 09:45:36;;;;;;;5.23;4.73;;;23.60;86.10;;;;;;5013676;28;20452;-57
2021/06/01 09:48:07;;;;;;;9.47;5.03;;;23.40;87.60;;;;;;5013475;28;20450;-56
2021/06/01 09:50:38;;;;;;;7.63;4.23;;;23.30;84.40;;;;;;5013529;28;20466;-57
2021/06/01 09:53:07;;;;;;;5.60;4.70;;;23.50;87.00;;;;;;5009734;28;20477;-57
2021/06/01 09:55:41;;;;;;;6.47;4.57;;;23.70;85.00;;;;;;5013576;28;20441;-57
2021/06/01 09:58:10;;;;;;;6.23;4.27;;;23.90;87.10;;;;;;5013152;28;20492;-57
2021/06/01 10:00:41;;;;;;;7.53;4.50;;;24.30;85.90;;;;;;5013645;28;20466;-57
2021/06/01 10:03:15;;;;;;;4.90;4.40;;;23.70;82.20;;;;;;5013199;28;20456;-57
2021/06/01 10:05:42;;;;;;;20.73;7.00;;;23.40;86.60;;;;;;5013356;28;20536;-58
2021/06/01 10:08:14;;;;;;;5.00;4.03;;;23.90;84.80;;;;;;5013004;28;20449;-57
2021/06/01 10:10:41;;;;;;;4.67;4.00;;;24.70;87.00;;;;;;5012875;28;20473;-57
2021/06/01 10:13:09;;;;;;;4.60;4.10;;;25.00;86.90;;;;;;5007553;28;20492;-57
2021/06/01 10:15:39;;;;;;;4.60;4.20;;;23.90;84.20;;;;;;5011956;28;20449;-57
2021/06/01 10:18:07;;;;;;;5.53;4.57;;;23.80;85.20;;;;;;5012611;28;20454;-56
2021/06/01 10:20:35;;;;;;;4.03;3.57;;;23.10;86.70;;;;;;5011884;28;20473;-58
2021/06/01 10:23:02;;;;;;;4.17;3.73;;;23.70;83.80;;;;;;5013135;28;20543;-57
2021/06/01 10:25:29;;;;;;;4.37;3.40;;;24.40;81.90;;;;;;5007952;28;20453;-57
2021/06/01 10:28:00;;;;;;;9.17;4.10;;;25.00;81.70;;;;;;5008985;28;20977;-57
2021/06/01 10:30:27;;;;;;;5.87;4.40;;;24.50;82.00;;;;;;5011895;28;20495;-57
2021/06/01 10:33:00;;;;;;;5.63;4.53;;;23.90;83.80;;;;;;5011444;28;20488;-57
2021/06/01 10:35:32;;;;;;;5.00;4.40;;;23.30;86.90;;;;;;5011873;28;20445;-57
2021/06/01 10:44:19;;;;;;;5.10;3.73;;;25.00;80.70;;;;;;5011904;28;20484;-57
2021/06/01 10:52:32;;;;;;;4.10;3.70;;;24.20;83.80;;;;;;5010692;28;20485;-57
2021/06/01 10:55:09;;;;;;;8.63;3.90;;;24.10;84.10;;;;;;5011619;28;20442;-58
2021/06/01 10:57:56;;;;;;;4.07;3.67;;;23.90;83.00;;;;;;5010088;28;20453;-57
2021/06/01 11:03:15;;;;;;;4.30;3.37;;;23.20;88.50;;;;;;5011130;28;20518;-57
2021/06/01 11:06:04;;;;;;;3.77;3.40;;;23.30;88.00;;;;;;5011122;28;20445;-57
2021/06/01 11:08:37;;;;;;;5.67;3.50;;;23.80;84.20;;;;;;5010500;28;20533;-57
2021/06/01 11:11:26;;;;;;;4.10;3.40;;;24.10;84.70;;;;;;5010919;28;20588;-57
2021/06/01 11:13:53;;;;;;;7.80;3.50;;;23.90;84.80;;;;;;5007919;28;20441;-56
2021/06/01 11:16:20;;;;;;;4.63;3.30;;;23.70;86.90;;;;;;5010841;28;20458;-57
2021/06/01 11:18:56;;;;;;;3.37;3.07;;;23.70;83.80;;;;;;5009674;28;20476;-57
2021/06/01 11:21:33;;;;;;;4.30;3.87;;;24.20;85.20;;;;;;5010500;28;20446;-58
2021/06/01 11:35:30;;;;;;;3.43;3.17;;;24.60;82.40;;;;;;4984867;28;20440;-58
2021/06/01 11:38:05;;;;;;;3.40;3.03;;;24.30;85.60;;;;;;5010656;28;20495;-57
2021/06/01 11:40:37;;;;;;;4.73;3.40;;;23.80;83.50;;;;;;5010596;28;20481;-56
2021/06/01 11:43:08;;;;;;;3.63;3.13;;;23.90;88.00;;;;;;5010684;28;20469;-56
2021/06/01 11:45:49;;;;;;;7.00;3.23;;;23.70;84.60;;;;;;5010598;28;20441;-57
2021/06/01 11:51:17;;;;;;;3.93;3.30;;;23.90;84.80;;;;;;4954034;28;20957;-57
2021/06/01 11:53:53;;;;;;;3.87;3.47;;;24.10;87.20;;;;;;5010518;28;20935;-57
2021/06/01 11:57:09;;;;;;;4.83;3.50;;;24.00;82.90;;;;;;5010466;28;20876;-56
2021/06/01 12:05:24;;;;;;;4.00;3.27;;;23.70;86.10;;;;;;5010801;28;20445;-57
2021/06/01 12:19:04;;;;;;;4.87;2.70;;;24.30;82.20;;;;;;4985532;28;20425;-57
2021/06/01 12:21:33;;;;;;;7.83;7.03;;;24.60;77.60;;;;;;5009998;28;20477;-56
2021/06/01 12:24:03;;;;;;;2.60;2.37;;;24.90;83.50;;;;;;5010080;28;20538;-57
2021/06/01 12:26:39;;;;;;;2.40;2.20;;;24.80;72.90;;;;;;5009857;28;20492;-56
2021/06/01 12:32:03;;;;;;;3.60;2.33;;;24.50;77.90;;;;;;5009958;28;20508;-56
2021/06/01 12:34:40;;;;;;;2.83;2.63;;;24.50;77.70;;;;;;5009869;28;20460;-56
2021/06/01 13:12:12;;;;;;;1.63;1.53;;;23.80;68.00;;;;;;5007517;28;20536;-57
2021/06/01 13:14:50;;;;;;;6.97;1.80;;;23.90;66.30;;;;;;5011211;28;21004;-57
2021/06/01 13:20:24;;;;;;;2.07;1.30;;;23.70;67.70;;;;;;5012206;28;20460;-56
2021/06/01 13:23:03;;;;;;;2.57;2.33;;;23.80;67.90;;;;;;5014177;28;20938;-56
2021/06/01 13:31:36;;;;;;;3.23;1.60;;;24.20;68.40;;;;;;4995012;28;20429;-56
2021/06/01 13:37:05;;;;;;;1.83;1.70;;;23.80;70.60;;;;;;4997768;28;20511;-56
2021/06/01 13:39:37;;;;;;;2.30;1.70;;;23.90;70.60;;;;;;5014520;28;20481;-56
2021/06/01 13:47:54;;;;;;;2.33;2.10;;;23.50;73.30;;;;;;5004565;28;20449;-55
2021/06/01 13:50:31;;;;;;;2.47;1.60;;;23.40;73.50;;;;;;5014375;28;20469;-57
2021/06/01 13:55:42;;;;;;;1.70;1.60;;;23.50;72.40;;;;;;5013346;28;20503;-54
2021/06/01 13:58:33;;;;;;;1.80;1.43;;;23.50;72.80;;;;;;5014337;28;20693;-55
2021/06/01 14:01:05;;;;;;;3.70;1.60;;;23.60;72.20;;;;;;5014223;28;20470;-56
2021/06/01 14:39:20;;;;;;;1.67;1.57;;;24.00;64.80;;;;;;5003335;28;20806;-55
2021/06/01 15:04:45;;;;;;;2.37;2.20;;;23.90;68.50;;;;;;4984073;28;20966;-56
2021/06/01 15:10:44;;;;;;;5.40;3.03;;;24.00;71.10;;;;;;5001922;28;20446;-56
2021/06/01 15:24:47;;;;;;;2.40;2.20;;;23.70;70.90;;;;;;4995524;28;20515;-56
2021/06/01 15:40:55;;;;;;;2.40;1.93;;;24.00;66.90;;;;;;4958332;28;20489;-56
2021/06/01 15:49:48;;;;;;;68.00;30.00;;;24.40;68.00;;;;;;5003846;28;20511;-56
2021/06/01 15:52:49;;;;;;;10.53;5.30;;;24.00;67.90;;;;;;5009701;28;21005;-56
2021/06/01 15:55:52;;;;;;;10.87;3.60;;;23.90;69.10;;;;;;4992443;28;20450;-56
2021/06/01 16:12:31;;;;;;;2.40;2.20;;;23.80;65.50;;;;;;5008716;28;20525;-57
2021/06/01 16:15:22;;;;;;;4.10;2.07;;;24.00;63.60;;;;;;5010154;28;20442;-56
2021/06/01 16:23:28;;;;;;;4.13;1.90;;;24.20;61.80;;;;;;5010707;28;20445;-56
2021/06/01 16:31:42;;;;;;;2.87;2.53;;;23.90;65.60;;;;;;5006914;28;20418;-56
2021/06/01 16:43:00;;;;;;;4.70;2.50;;;23.80;65.10;;;;;;5002057;28;20457;-56
2021/06/01 17:04:39;;;;;;;4.37;3.30;;;23.10;64.60;;;;;;5001014;28;20453;-55
2021/06/01 17:07:14;;;;;;;3.03;2.80;;;23.10;66.00;;;;;;5015039;28;20461;-57
2021/06/01 17:12:42;;;;;;;2.33;1.93;;;23.10;66.90;;;;;;5013921;28;20535;-55
2021/06/01 17:15:10;;;;;;;2.70;2.50;;;23.00;64.10;;;;;;4995191;28;20817;-55
2021/06/01 17:17:40;;;;;;;2.33;2.13;;;23.00;66.20;;;;;;4995052;28;21093;-55
2021/06/01 17:20:27;;;;;;;2.23;2.03;;;22.90;66.60;;;;;;4997694;28;20470;-55
2021/06/01 17:23:11;;;;;;;5.00;1.83;;;22.90;65.60;;;;;;4995977;28;20450;-56
2021/06/01 17:31:39;;;;;;;2.07;1.87;;;22.80;64.80;;;;;;4980034;28;20972;-56
2021/06/01 17:36:53;;;;;;;1.90;1.80;;;22.70;64.70;;;;;;4994882;28;20813;-55
2021/06/01 17:39:20;;;;;;;4.30;2.07;;;22.70;64.60;;;;;;5008029;28;20484;-55